Billund, Denmark
Current Conditions -  °F | °C
As of 6:50 PM on Thursday 23 Oct 2014 (Local Time) from EKBI Reporting Station
Overcast Overcast  
Wind Chill: 54°   Ceiling: 500
Heat Index: 54°   Visibility: 4mi
Dew Point: 52°   Wind: 10mph
Humidity: 94%   Direction: 180°S
Pressure: 30.06"   Gusts: NA
Location:  55.73°N, 9.11°E
Report Text: EKBI 231650Z AUTO 18009KT 140V200 6000NDV OVC005/// 12/11 Q1018
Loading
Personal Weather Stations






























Interactive Weather Map
Tropical Storm Tracking
New forecast layout! Learn more

10-Day Weather Forecast

Advertisements
Track Severe Weather on mobile